Terminal Aerodrome Forecast
Issued by NWS

Home | Current Version | Previous Version | Text Only | Print | Product List | Glossary On
Versions: 1 2 3 4 5 6 7 8 9 10 11 12 13 14
000
FTUS46 KMTR 251100
TAFSNS
TAF
KSNS 251122Z 2512/2612 12015KT P6SM SCT040 BKN200
     FM251400 12020KT P6SM -RA BKN040 OVC200
     FM251800 14014KT P6SM -SHRA BKN030 OVC100
     FM252200 28010KT P6SM BKN050
     FM260300 29005KT P6SM SCT250=

USA.gov is the U.S. government's official web portal to all federal, state and local government web resources and services.